x

9449880 - Friday Harbor, Wa (frdw1) Weather Station

2:36 - Wed 22nd Feb 2017 All times are PST. -8 hours from GMT.

  • Wind
  • Sea Temp 46°f
  • Aire Temp 37°f
  • Sea Pressure 1021.4mb
  • 9449880 - Friday Harbor, Wa
  • 9449880 - Friday Harbor, Wa

More Historic Weather Station data

Upgrade to MSW Pro to gain access to the past 30 days of data for over 8000 Wavebouys and Weather Stations around the globe.

Join Pro

Comparision Forecast

View Surf forecast
   
mié 02/22 2:36  -  3 mph 1021.4mb 46f 37f
2:30 1 5 mph 1021.4mb 46f 38f
2:24 2 5 mph 1021.4mb 46f 37f
2:18 2 5 mph 1021.4mb 46f 36f
2:12 5
mph
1021.4mb 46f 36f
2:06  -  3 mph 1021.3mb 46f 36f
2:00 3 5 mph 1021.4mb 46f 36f
1:36 1 2 mph 1021.3mb 46f 38f
1:30 1
mph
1021.3mb 46f 38f
1:24  -  3 mph 1021.2mb 46f 38f
1:18 2 3 mph 1021.2mb 46f 38f
1:12 1 3 mph 1021.1mb 46f 38f
1:06 2 5 mph 1021mb 46f 38f
1:00 1 5 mph 1021mb 46f 38f
12:36  -  5 mph 1020.8mb 46f 39f
12:30 5 13 mph 1020.7mb 46f 39f
12:24 8 10 mph 1020.7mb 46f 39f
12:18 2 6 mph 1020.6mb 46f 39f
12:12 3 8 mph 1020.5mb 46f 39f
12:06 5 8 mph 1020.5mb 46f 39f
12:00  -  2 mph 1020.4mb 46f 39f
mar 02/21 11:36 1 3 mph 1020.2mb 46f 39f
11:30 1 3 mph 1020.1mb 46f 38f
11:24 1 2 mph 1020.1mb 46f 39f
11:18  -  2 mph 1020mb 46f 39f
11:12  -  2 mph 1020mb 46f 39f
11:06 2 5 mph 1020mb 46f 39f
11:00  -  5 mph 1020mb 46f 40f
10:36 3 7 mph 1020mb 46f 40f
10:30 2 6 mph 1020mb 46f 40f
10:24 2 8 mph 1019.9mb 46f 40f
10:18 5 9 mph 1019.8mb 46f 41f
10:12 10 13 mph 1019.8mb 46f 41f
10:06 9 13 mph 1019.7mb 46f 41f
10:00 9 11 mph 1019.6mb 46f 41f
9:36 8 14 mph 1019.4mb 46f 41f
9:30 9 13 mph 1019.4mb 46f 41f
9:24 8 14 mph 1019.3mb 46f 42f
9:18 9 15 mph 1019.3mb 46f 42f
9:12 5 10 mph 1019.2mb 46f 42f
9:06 10 15 mph 1019.2mb 46f 42f
9:00 7 9 mph 1019.2mb 46f 42f
8:36 6 10 mph 1018.7mb 46f 42f
8:30 6 13 mph 1018.5mb 46f 42f
8:24 9 16 mph 1018.4mb 46f 42f
8:18 9 14 mph 1018.3mb 46f 42f
8:12 7 11 mph 1018.3mb 46f 42f
8:06 3 8 mph 1018.3mb 46f 41f
8:00 2 7 mph 1018.3mb 46f 42f
7:36 1 5 mph 1018.1mb 46f 41f
7:30 1 7 mph 1018mb 46f 41f
7:24 1 5 mph 1017.9mb 46f 41f
7:18 1 6 mph 1017.9mb 46f 40f
7:12  -  3 mph 1017.9mb 46f 40f
7:06 2 6 mph 1017.9mb 46f 40f
7:00  -  1 mph 1017.9mb 46f 40f
6:36  -  1 mph 1017.6mb 46f 42f
6:30  -  1 mph 1017.5mb 46f 42f
6:24  -  1 mph 1017.4mb 46f 42f
6:18  -  1 mph 1017.3mb 46f 42f
6:12 1 2 mph 1017.2mb 46f 42f
6:06  -  2 mph 1017.2mb 46f 42f
6:00  -  2 mph 1017.1mb 46f 42f
5:36  -  5 mph 1016.8mb 46f 43f
5:30 2 6 mph 1016.8mb 46f 43f
5:24 1 7 mph 1016.7mb 46f 43f
5:18 6 9 mph 1016.6mb 46f 44f
5:12 6 9 mph 1016.5mb 46f 44f
5:06 7 9 mph 1016.3mb 46f 44f
5:00 7 9 mph 1016.3mb 46f 44f
4:36 8 9 mph 1016mb 46f 44f
4:30 8 10 mph 1015.9mb 46f 44f
4:24 8 10 mph 1015.9mb 46f 44f
4:18 9 11 mph 1015.8mb 46f 44f
4:12 9 10 mph 1015.9mb 46f 44f
4:06 9 11 mph 1015.8mb 46f 44f
4:00 8 11 mph 1015.6mb 46f 44f
3:36 7 8 mph 1015.3mb 46f 45f
3:30 8 10 mph 1015.2mb 46f 45f
3:24 7 8 mph 1015.1mb 46f 46f
3:18 6 7 mph 1015.1mb 46f 45f
3:12 6 8 mph 1015mb 46f 45f
3:06 7 8 mph 1014.9mb 46f 45f
3:00 6 7 mph 1014.9mb 46f 45f
2:36 7 8 mph 1014.6mb 46f 45f
2:30 7 8 mph 1014.6mb 46f 45f
2:24 5 8 mph 1014.6mb 46f 46f
2:18 6 7 mph 1014.6mb 46f 45f
2:12 5
mph
1014.6mb 46f 45f
2:06 2 3 mph 1014.5mb 46f 45f
2:00 2 3 mph 1014.5mb 46f 45f
1:36 2 3 mph 1014.3mb 46f 45f
1:30 2 5 mph 1014.3mb 46f 45f
1:24 3 5 mph 1014.2mb 46f 44f
1:18 5 6 mph 1014.2mb 46f 44f
1:12 5 7 mph 1014.2mb 46f 44f
1:06 5 7 mph 1014.1mb 46f 44f
1:00 6 9 mph 1014mb 46f 44f
12:36 8 9 mph 1013.9mb 46f 44f
12:30 8 10 mph 1014mb 46f 43f
12:24 7 10 mph 1013.9mb 46f 44f
12:18 7 8 mph 1013.9mb 46f 44f
12:12 3 9 mph 1013.9mb 46f 44f
12:06 6 9 mph 1013.9mb 46f 44f
12:00 6 10 mph 1013.8mb 46f 44f
11:36 6 8 mph 1013.6mb 46f 44f
11:30 6 10 mph 1013.4mb 46f 43f
11:24 7 10 mph 1013.4mb 46f 44f
11:18 7 10 mph 1013.3mb 46f 43f
11:12 6 10 mph 1013.2mb 46f 43f
11:06 7 11 mph 1013.1mb 46f 44f
11:00 7 13 mph 1013mb 46f 44f
10:36 6 10 mph 1012.7mb 46f 44f
10:30 7 10 mph 1012.6mb 46f 43f
10:24 6 11 mph 1012.4mb 46f 44f
10:18 7 10 mph 1012.3mb 46f 44f
10:12 5 8 mph 1012.2mb 46f 44f
10:06 5 7 mph 1012mb 46f 44f
10:00 3 7 mph 1012mb 46f 44f
9:36 2 6 mph 1011.5mb 46f 43f
9:30 3 6 mph 1011.4mb 46f 43f
9:24 3 7 mph 1011.4mb 46f 42f
9:18 2 6 mph 1011.3mb 46f 42f
9:12 3 6 mph 1011.2mb 46f 42f
9:06 1 2 mph 1011.1mb 46f 42f
9:00 1 6 mph 1011mb 46f 42f
8:36  -  2 mph 1010.6mb 46f 43f
8:30 1 7 mph 1010.5mb 46f 42f
8:24 1 3 mph 1010.4mb 46f 42f
8:18 1 3 mph 1010.3mb 46f 42f
8:12  -  2 mph 1010.2mb 46f 42f
8:06 1 3 mph 1010.1mb 46f 41f
8:00 2 5 mph 1010mb 46f 41f
7:36 1 3 mph 1009.6mb 46f 41f
7:30 1 3 mph 1009.4mb 46f 41f
7:24  -  5 mph 1009.2mb 46f 41f
7:18 1 6 mph 1009.1mb 46f 42f
7:12 1 3 mph 1009mb 46f 42f
7:06  -  3 mph 1008.9mb 46f 42f
7:00  -  5 mph 1008.8mb 46f 42f
6:36 2 6 mph 1008.6mb 46f 42f
6:30 1 3 mph 1008.6mb 46f 42f
6:24  -  2 mph 1008.5mb 46f 42f
6:18  -  3 mph 1008.4mb 46f 42f
6:12 1 2 mph 1008.3mb 46f 42f
6:06  -  3 mph 1008.3mb 46f 42f
6:00 1 6 mph 1008.3mb 46f 42f
5:36 1 5 mph 1008mb 46f 42f
5:30 2 5 mph 1007.9mb 46f 43f
5:24  -  2 mph 1007.9mb 46f 42f
5:18 1 6 mph 1007.8mb 46f 42f
5:12 3 8 mph 1007.7mb 46f 42f
5:06 2 7 mph 1007.7mb 46f 42f
5:00  -  3 mph 1007.7mb 46f 42f
4:36 1 3 mph 1007.5mb 46f 42f
4:30  -  2 mph 1007.4mb 46f 43f
4:24  -  3 mph 1007.4mb 46f 43f
4:18  -  2 mph 1007.4mb 46f 43f
4:12  -  3 mph 1007.5mb 46f 42f
4:06 1 2 mph 1007.5mb 46f 43f
4:00 1 3 mph 1007.5mb 46f 42f
3:36  -  1 mph 1007.4mb 46f 43f
3:30 1 3 mph 1007.4mb 46f 43f
3:24  -  1 mph 1007.4mb 46f 43f
3:18  -  1 mph 1007.4mb 46f 43f
3:12  -  1 mph 1007.4mb 46f 43f
3:06  -  2 mph 1007.4mb 46f 43f
3:00  -  3 mph 1007.4mb 46f 43f
2:54  -  1 mph 1007.5mb 46f 42f
2:48  -  1 mph 1007.5mb 46f 42f
2:36  -  1 mph 1007.6mb 46f 42f
2:30  -  2 mph 1007.6mb 46f 42f
2:24  -  1 mph 1007.6mb 46f 42f
2:18  -  2 mph 1007.5mb 46f 42f
2:12  -  2 mph 1007.5mb 46f 42f
2:06  -  2 mph 1007.5mb 46f 43f
2:00  -  2 mph 1007.6mb 46f 43f
1:54  -  1 mph 1007.6mb 46f 43f
1:48  -  2 mph 1007.6mb 46f 43f
1:36 2 3 mph 1007.6mb 46f 43f
1:30 1 2 mph 1007.5mb 46f 43f
1:24  -  1 mph 1007.5mb 46f 43f
1:18 2 3 mph 1007.5mb 46f 43f
1:12 3
mph
1007.5mb 46f 43f
1:06 3 5 mph 1007.5mb 46f 43f
1:00 3 5 mph 1007.5mb 46f 43f
12:54 3 5 mph 1007.6mb 46f 43f
12:48 2 3 mph 1007.6mb 46f 43f
12:36 1 2 mph 1007.6mb 46f 43f
12:30  -  2 mph 1007.6mb 46f 43f
12:24  -  2 mph 1007.6mb 46f 42f
12:18  -  1 mph 1007.6mb 46f 42f
12:12  -  2 mph 1007.5mb 46f 42f
12:06 1 3 mph 1007.4mb 46f 43f
12:00  -  1 mph 1007.3mb 46f 43f
lun 02/20 11:54  -  1 mph 1007.2mb 46f 43f
11:48 2 3 mph 1007.2mb 46f 43f
11:36 2 3 mph 1007.1mb 46f 43f
11:30 2 3 mph 1007.2mb 46f 43f
11:24 1 2 mph 1007.3mb 46f 43f
11:18 1 2 mph 1007.3mb 46f 43f
11:12  -  mph 1007.3mb 46f 43f
11:06  -  mph 1007.4mb 46f 43f
11:00  -  1 mph 1007.3mb 46f 43f
10:54  -  1 mph 1007.3mb 46f 43f
10:48  -  1 mph 1007.3mb 46f 43f
10:36  -  1 mph 1007.5mb 46f 42f
10:30 1 2 mph 1007.5mb 46f 42f
10:24 2 3 mph 1007.6mb 46f 41f
10:18 2 3 mph 1007.5mb 46f 41f
10:12 2 3 mph 1007.4mb 46f 41f
10:06 1 2 mph 1007.2mb 46f 42f
10:00  -  1 mph 1007.1mb 46f 42f
9:54  -  1 mph 1007.1mb 46f 42f
9:48 1 2 mph 1006.9mb 46f 42f
9:36  -  2 mph 1006.8mb 46f 42f
9:30  -  1 mph 1006.8mb 46f 42f
9:24  -  2 mph 1006.8mb 46f 42f
9:18 1 2 mph 1006.8mb 46f 43f
9:12  -  1 mph 1006.8mb 46f 43f
9:06 1 2 mph 1006.9mb 46f 43f
9:00 1 2 mph 1006.9mb 46f 43f
8:54  -  3 mph 1006.9mb 46f 43f
8:48 1 3 mph 1006.8mb 46f 43f
8:36  -  3 mph 1006.8mb 46f 43f
8:30 2 5 mph 1006.7mb 46f 43f
8:24 3
mph
1006.6mb 46f 43f
8:18 2
mph
1006.6mb 46f 43f
8:12 1 2 mph 1006.6mb 46f 44f
8:06 1 3 mph 1006.7mb 46f 44f
8:00 3 5 mph 1006.7mb 46f 44f
7:54 3 5 mph 1006.7mb 46f 44f
7:48 3 5 mph 1006.8mb 46f 44f
7:36 2 3 mph 1006.7mb 46f 44f
7:30 3 5 mph 1006.7mb 46f 44f
7:24 2 3 mph 1006.7mb 46f 44f
7:18 2 3 mph 1006.7mb 46f 44f
7:12 2 3 mph 1006.7mb 46f 44f
7:06 1 2 mph 1006.7mb 46f 44f
7:00 1 2 mph 1006.7mb 46f 44f
6:54 1 2 mph 1006.6mb 46f 44f
6:48  -  2 mph 1006.6mb 46f 44f
6:36  -  1 mph 1006.5mb 46f 44f
6:30  -  1 mph 1006.5mb 46f 44f
6:24  -  1 mph 1006.4mb 46f 44f
6:18 1 2 mph 1006.4mb 46f 44f
6:12 2 5 mph 1006.4mb 46f 44f
6:06 3 5 mph 1006.3mb 46f 44f
6:00 2 3 mph 1006.1mb 46f 44f
5:54 1 2 mph 1006.1mb 46f 44f
5:48 1 2 mph 1006mb 46f 44f
5:36 2 3 mph 1006mb 46f 44f
5:30  -  1 mph 1006mb 46f 44f
5:24  -  2 mph 1005.9mb 46f 44f
5:18  -  1 mph 1005.9mb 46f 44f
5:12  -  1 mph 1005.9mb 46f 44f
5:06  -  1 mph 1005.9mb 46f 44f
5:00  -  mph 1005.7mb 46f 44f
4:54  -  1 mph 1005.6mb 46f 44f
4:48  -  2 mph 1005.5mb 46f 44f
4:36  -  1 mph 1005.4mb 46f 44f
4:30  -  2 mph 1005.3mb 46f 44f
4:24  -  3 mph 1005.2mb 46f 44f
4:18 2 3 mph 1005.1mb 46f 44f
4:12 2 3 mph 1005.1mb 46f 45f
4:06 3
mph
1005.1mb 46f 45f
4:00 2 3 mph 1005mb 46f 45f
3:54 2 5 mph 1004.9mb 46f 45f
3:48 1 3 mph 1004.8mb 46f 45f
3:36 3 5 mph 1004.6mb 46f 45f
3:30 1 3 mph 1004.4mb 46f 45f
3:24  -  2 mph 1004.3mb 46f 45f
3:18 1 5 mph 1004.2mb 46f 45f
3:12 2 5 mph 1004.1mb 46f 45f
3:06  -  3 mph 1004mb 46f 45f
3:00 1 3 mph 1003.8mb 46f 45f
2:54 2 5 mph 1003.7mb 46f 45f
2:48 1 5 mph 1003.6mb 46f 45f
2:36  -  2 mph 1003.5mb 46f 45f
2:30  -  2 mph 1003.3mb 46f 46f
2:24 3 6 mph 1003.2mb 46f 45f
2:18 2 6 mph 1003.1mb 46f 46f
2:12 2 5 mph 1003mb 46f 45f
2:06 2 6 mph 1002.9mb 46f 45f
2:00 2 7 mph 1002.8mb 46f 46f
1:54 3 7 mph 1002.6mb 46f 46f
1:48 3 7 mph 1002.5mb 46f 46f
1:36 3 6 mph 1002.2mb 46f 46f
1:30 5 9 mph 1002.1mb 46f 45f
1:24 5 7 mph 1002.1mb 46f 46f
1:18 3 8 mph 1002mb 46f 45f
1:12 5 8 mph 1001.9mb 46f 45f
1:06 5 8 mph 1001.8mb 46f 45f
1:00 3 8 mph 1001.7mb 46f 46f
12:54 5 8 mph 1001.6mb 46f 46f
12:48 3 7 mph 1001.5mb 46f 46f
12:36 3 7 mph 1001.3mb 46f 46f
12:30 3 8 mph 1001.3mb 46f 45f
12:24 6 8 mph 1001.2mb 46f 45f
12:18 6 9 mph 1001.2mb 46f 45f
12:12 3 8 mph 1001.2mb 46f 45f
12:06 3 8 mph 1001.1mb 46f 45f
12:00 5 9 mph 1001mb 46f 45f
11:54 5 8 mph 1000.9mb 46f 45f
11:48 3 7 mph 1000.8mb 46f 45f
11:36 5 7 mph 1000.8mb 46f 45f
11:30 1 7 mph 1000.7mb 46f 46f
11:24 3 6 mph 1000.7mb 46f 45f
11:18 1 6 mph 1000.6mb 46f 46f
11:12 2 8 mph 1000.6mb 46f 46f
11:06  -  5 mph 1000.5mb 46f 47f
11:00 1 2 mph 1000.5mb 46f 46f
10:36 1 5 mph 1000.3mb 46f 46f
10:30 1 3 mph 1000.3mb 46f 46f
10:24 2 5 mph 1000.2mb 46f 46f
10:18 1 5 mph 1000.2mb 46f 46f
10:12 2 5 mph 1000.2mb 46f 46f
10:06 2 5 mph 1000.2mb 46f 46f
10:00 1 5 mph 1000.1mb 46f 45f
9:54 1 2 mph 1000.1mb 46f 45f
9:48 1 2 mph 1000.2mb 46f 45f
9:36 1 5 mph 1000.3mb 46f 44f
9:30 2 3 mph 1000.2mb 46f 44f
9:24 1 3 mph 1000.2mb 46f 44f
9:18 1 3 mph 1000.2mb 46f 44f
9:12 2 3 mph 1000.3mb 46f 44f
9:06 2 3 mph 1000.3mb 46f 44f
9:00 3
mph
1000.3mb 46f 44f
8:54 2 3 mph 1000.4mb 46f 44f
8:48 2 5 mph 1000.3mb 46f 44f
8:36 1 2 mph 1000.2mb 46f 43f
8:30  -  3 mph 1000.2mb 46f 43f
8:24 2 5 mph 1000.2mb 46f 43f
8:18 2 5 mph 1000.2mb 46f 43f
8:12 3 5 mph 1000.1mb 46f 43f
8:06 3 6 mph 1000.1mb 46f 43f
8:00 1 5 mph 1000.1mb 46f 43f
7:54 1 5 mph 1000mb 46f 43f
7:48  -  3 mph 1000.1mb 46f 43f
7:36 1 3 mph 1000mb 46f 42f
7:30  -  3 mph 1000mb 46f 42f
7:24  -  2 mph 1000.1mb 46f 42f
7:18  -  1 mph 1000.2mb 46f 42f
7:12 1 2 mph 1000.2mb 46f 42f
7:06 1 2 mph 1000.2mb 46f 42f
7:00 1 2 mph 1000.2mb 46f 42f
6:54  -  3 mph 1000.3mb 46f 41f
6:48  -  5 mph 1000.3mb 46f 42f
6:36 2 3 mph 1000.3mb 46f 42f
6:30  -  1 mph 1000.3mb 46f 42f
6:24  -  1 mph 1000.3mb 46f 42f
6:18  -  1 mph 1000.3mb 46f 42f
6:12  -  2 mph 1000.4mb 46f 42f
6:06 2
mph
1000.4mb 46f 42f
6:00  -  2 mph 1000.4mb 46f 42f
5:54 3
mph
1000.4mb 46f 41f
5:48 2
mph
1000.3mb 46f 42f
5:36 2 3 mph 1000.5mb 46f 42f
5:30 2 3 mph 1000.6mb 46f 42f
5:24 3 5 mph 1000.6mb 46f 43f
5:18 3 5 mph 1000.7mb 46f 43f
5:12 3 5 mph 1000.8mb 46f 43f
5:06 5
mph
1000.8mb 46f 43f
5:00 3
mph
1000.9mb 46f 43f
4:54 2 3 mph 1001mb 46f 43f
4:48 2
mph
1001mb 46f 43f
4:36 5 7 mph 1001.1mb 46f 43f
4:30 6 7 mph 1001.2mb 46f 43f
4:24 6 8 mph 1001.2mb 46f 43f
4:18 6 8 mph 1001.2mb 46f 43f
4:12 6 7 mph 1001.3mb 46f 43f
4:06 6 8 mph 1001.4mb 46f 43f
4:00 7 8 mph 1001.5mb 46f 43f
3:54 7 9 mph 1001.6mb 46f 43f
3:48 6 8 mph 1001.8mb 46f 43f
3:36 6 8 mph 1001.9mb 46f 43f
3:30 7 9 mph 1001.9mb 46f 43f
3:24 8 9 mph 1001.9mb 46f 43f
3:18 7 8 mph 1001.9mb 46f 43f
3:12 6 8 mph 1001.8mb 46f 42f
3:06 6 7 mph 1001.9mb 46f 42f
3:00 5 6 mph 1001.9mb 46f 42f
2:54 6
mph
1002mb 46f 42f
2:48 6 7 mph 1002mb 46f 42f
2:36 5 6 mph 1002.2mb 46f 43f
2:30 5 6 mph 1002.1mb 46f 43f
2:24 6
mph
1002.1mb 46f 43f
2:18 6 7 mph 1002.1mb 46f 43f
2:12 6 7 mph 1002.2mb 46f 43f
2:06 7 8 mph 1002.2mb 46f 43f
2:00 7 8 mph 1002.2mb 46f 43f
1:54 7 8 mph 1002.2mb 46f 43f
1:48 7 9 mph 1002.3mb 46f 43f
1:36 6 7 mph 1002.4mb 46f 43f
1:30 5 6 mph 1002.4mb 46f 43f
1:24 3 5 mph 1002.4mb 46f 43f
1:18 3 5 mph 1002.5mb 46f 43f
1:12 3 5 mph 1002.5mb 46f 43f
1:06 3 6 mph 1002.5mb 46f 43f
1:00 3 6 mph 1002.6mb 46f 43f
12:54 3 6 mph 1002.6mb 46f 43f
12:48 5 6 mph 1002.6mb 46f 43f
12:36 3 6 mph 1002.5mb 46f 43f
12:30 3 6 mph 1002.4mb 46f 43f
12:24 5 7 mph 1002.3mb 46f 43f
12:18 5 7 mph 1002.3mb 46f 43f
12:12 5 6 mph 1002.2mb 46f 43f
12:06 6 7 mph 1002.2mb 46f 43f
12:00 3 7 mph 1002.2mb 46f 44f
dom 02/19 11:54 5 7 mph 1002.2mb 46f 44f
11:48 3 7 mph 1002.1mb 46f 44f
11:36 7 9 mph 1002.1mb 46f 44f
11:30 6 10 mph 1002.1mb 46f 44f
11:24 7 11 mph 1002.1mb 46f 44f
11:18 7 10 mph 1002.1mb 46f 44f
11:12 7 11 mph 1002mb 46f 44f
11:06 6 13 mph 1001.9mb 46f 44f
11:00 6 11 mph 1001.9mb 46f 44f
10:54 7 9 mph 1001.8mb 46f 44f
10:48 8 14 mph 1001.7mb 46f 44f
10:36 7 11 mph 1001.6mb 46f 44f
10:30 6 13 mph 1001.5mb 46f 44f
10:24 6 11 mph 1001.4mb 46f 44f
10:18 8 13 mph 1001.4mb 46f 44f
10:12 6 11 mph 1001.4mb 46f 44f
10:06 9 13 mph 1001.4mb 46f 44f
10:00 8 11 mph 1001.4mb 46f 44f
9:54 7 11 mph 1001.3mb 46f 44f
9:48 7 13 mph 1001.2mb 46f 44f
9:36 6 9 mph 1001.1mb 46f 44f
9:30 7 13 mph 1001.1mb 46f 44f
9:24 8 11 mph 1000.9mb 46f 44f
9:18 6 11 mph 1000.9mb 46f 44f
9:12 6 10 mph 1000.8mb 46f 44f
9:06 7 14 mph 1000.8mb 46f 44f
9:00 5 11 mph 1000.6mb 46f 44f
8:54 7 11 mph 1000.7mb 46f 44f
8:48 7 16 mph 1000.5mb 46f 44f
8:36 7 11 mph 1000.4mb 46f 44f
8:30 10 17 mph 1000.3mb 46f 44f
8:24 13 16 mph 1000.2mb 46f 44f
8:18 9 17 mph 1000.1mb 46f 44f
8:12 13 18 mph 1000mb 46f 44f
8:06 11 15 mph 999.9mb 46f 44f
8:00 9 18 mph 999.9mb 46f 44f
7:54 9 14 mph 999.8mb 46f 44f
7:48 10 17 mph 999.7mb 46f 44f
7:36 11 16 mph 999.5mb 46f 45f
7:30 10 18 mph 999.5mb 46f 45f
7:24 11 16 mph 999.4mb 46f 45f
7:18 10 18 mph 999.3mb 46f 45f
7:12 13 20 mph 999.3mb 46f 45f
7:06 10 18 mph 999.2mb 46f 45f
7:00 13 20 mph 999mb 46f 45f
6:54 13 18 mph 998.9mb 46f 45f
6:48 11 17 mph 999mb 46f 45f
6:36 8 15 mph 998.9mb 46f 45f
6:30 9 15 mph 998.9mb 46f 45f
6:24 9 17 mph 998.8mb 46f 45f
6:18 10 15 mph 998.8mb 46f 46f
6:12 8 16 mph 998.7mb 46f 45f
6:06 10 15 mph 998.6mb 46f 45f
6:00 11 20 mph 998.5mb 46f 46f
5:54 8 17 mph 998.4mb 46f 46f
5:48 9 15 mph 998.3mb 46f 46f
5:36 10 17 mph 998.3mb 46f 46f
5:30 10 17 mph 998.2mb 46f 46f
5:24 11 21 mph 998.1mb 46f 46f
5:18 15 21 mph 998mb 46f 46f
5:12 13 22 mph 998mb 46f 46f
5:06 13 21 mph 997.9mb 46f 46f
5:00 11 21 mph 997.7mb 46f 45f
4:54 15 25 mph 997.7mb 46f 45f
4:48 14 24 mph 997.7mb 46f 45f
4:36 14 20 mph 997.5mb 46f 45f
4:30 14 18 mph 997.4mb 46f 45f
4:24 14 17 mph 997.4mb 46f 45f
4:18 10 20 mph 997.4mb 46f 45f
4:12 11 17 mph 997.3mb 46f 45f
4:06 13 26 mph 997.3mb 46f 45f
4:00 14 22 mph 997.3mb 46f 45f
3:36 14 24 mph 997.2mb 46f 45f
3:30 16 29 mph 997.1mb 46f 45f
3:24 15 23 mph 997mb 46f 45f
3:18 14 26 mph 997mb 46f 45f
3:12 15 22 mph 997mb 46f 45f
3:06 15 22 mph 997mb 46f 45f
3:00 15 22 mph 996.8mb 46f 46f
2:54 11 22 mph 996.8mb 46f 46f
2:48 15 23 mph 996.8mb 46f 46f
2:36 14 24 mph 996.5mb 46f 46f
2:30 16 25 mph 996.5mb 46f 46f
2:24 15 23 mph 996.6mb 46f 46f
2:18 11 21 mph 996.6mb 46f 45f
2:12 15 25 mph 996.7mb 46f 45f
2:06 11 21 mph 996.7mb 46f 45f
2:00 14 22 mph 996.7mb 46f 45f
1:54 13 22 mph 996.7mb 46f 45f
1:48 11 24 mph 996.7mb 46f 45f
1:36 15 22 mph 996.7mb 46f 46f
1:30 11 20 mph 996.7mb 46f 46f
1:24 11 20 mph 996.5mb 46f 46f
1:18 9 16 mph 996.6mb 46f 46f
1:12 9 16 mph 996.7mb 46f 47f
1:06 9 14 mph 996.7mb 46f 46f
1:00 7 16 mph 996.7mb 46f 46f
12:54 8 22 mph 996.9mb 46f 46f
12:48 11 18 mph 996.8mb 46f 46f
12:36 10 21 mph 996.8mb 46f 46f
12:30 9 22 mph 996.7mb 46f 46f
12:24 11 17 mph 996.7mb 46f 45f
12:18 10 16 mph 996.7mb 46f 46f
12:12 8 17 mph 996.7mb 46f 45f
12:06 8 17 mph 996.7mb 46f 45f
12:00 10 17 mph 996.7mb 46f 45f
11:54 13 21 mph 996.6mb 46f 45f
11:48 9 22 mph 996.6mb 46f 46f
11:36 13 20 mph 996.7mb 46f 45f
11:30 11 20 mph 996.6mb 46f 45f
11:24 10 18 mph 996.4mb 46f 45f
11:18 14 21 mph 996.5mb 46f 45f
11:12 16 24 mph 996.5mb 46f 45f
11:06 13 22 mph 996.4mb 46f 45f
11:00 14 21 mph 996.3mb 46f 45f
10:54 14 22 mph 996.2mb 46f 45f
10:48 11 22 mph 996.2mb 46f 45f
10:36 14 20 mph 996.1mb 46f 44f
10:30 15 21 mph 996.1mb 46f 44f
10:24 14 18 mph 995.9mb 46f 44f
10:18 11 17 mph 995.9mb 46f 44f
10:12 11 16 mph 995.9mb 46f 44f
10:06 13 17 mph 995.9mb 46f 44f
10:00 11 17 mph 995.8mb 46f 44f
9:54 8 15 mph 995.8mb 46f 44f
9:48 10 17 mph 995.8mb 46f 44f
9:36 11 15 mph 995.6mb 46f 44f
9:30 11 15 mph 995.6mb 46f 44f
9:24 10 16 mph 995.5mb 46f 44f
9:18 11 15 mph 995.5mb 46f 44f
9:12 11 15 mph 995.5mb 46f 44f
9:06 9 13 mph 995.5mb 46f 44f
9:00 7 10 mph 995.5mb 46f 44f
8:54 6 8 mph 995.5mb 46f 44f
8:48 7 10 mph 995.4mb 46f 44f
8:36 6 10 mph 995.4mb 46f 44f
8:30 6 7 mph 995.4mb 46f 44f
8:24 8 10 mph 995.2mb 46f 44f
8:18 7 11 mph 995.1mb 46f 44f
8:12 7 11 mph 995.1mb 46f 44f
8:06 10 14 mph 995.1mb 46f 44f
8:00 10 14 mph 995.1mb 46f 44f
7:54 10 14 mph 995mb 46f 44f
7:48 9 14 mph 995mb 46f 44f
7:36 10 13 mph 994.9mb 46f 44f
7:30 8 10 mph 994.9mb 46f 43f
7:24 7 8 mph 994.9mb 46f 43f
7:18 7 10 mph 994.9mb 46f 43f